sensor_id;sensor_type;location;lat;lon;timestamp;P1;durP1;ratioP1;P2;durP2;ratioP2
6424;SDS011;12193;42.642;23.384;2024-02-23T00:01:08;20.00;;;10.83;;
6424;SDS011;12193;42.642;23.384;2024-02-23T00:03:37;18.13;;;10.27;;
6424;SDS011;12193;42.642;23.384;2024-02-23T00:06:09;17.10;;;10.40;;
6424;SDS011;12193;42.642;23.384;2024-02-23T00:08:38;20.27;;;10.37;;
6424;SDS011;12193;42.642;23.384;2024-02-23T00:11:08;15.77;;;9.87;;
6424;SDS011;12193;42.642;23.384;2024-02-23T00:13:37;22.33;;;10.97;;
6424;SDS011;12193;42.642;23.384;2024-02-23T00:16:06;19.03;;;11.30;;
6424;SDS011;12193;42.642;23.384;2024-02-23T00:18:35;19.27;;;10.97;;
6424;SDS011;12193;42.642;23.384;2024-02-23T00:21:04;22.17;;;11.50;;
6424;SDS011;12193;42.642;23.384;2024-02-23T00:23:36;25.43;;;11.47;;
6424;SDS011;12193;42.642;23.384;2024-02-23T00:26:05;20.30;;;11.23;;
6424;SDS011;12193;42.642;23.384;2024-02-23T00:28:35;20.00;;;11.57;;
6424;SDS011;12193;42.642;23.384;2024-02-23T00:31:04;19.17;;;11.60;;
6424;SDS011;12193;42.642;23.384;2024-02-23T00:33:33;21.53;;;11.60;;
6424;SDS011;12193;42.642;23.384;2024-02-23T00:36:03;19.73;;;11.37;;
6424;SDS011;12193;42.642;23.384;2024-02-23T00:38:35;24.00;;;11.67;;
6424;SDS011;12193;42.642;23.384;2024-02-23T00:41:05;19.53;;;11.13;;
6424;SDS011;12193;42.642;23.384;2024-02-23T00:43:37;19.37;;;11.53;;
6424;SDS011;12193;42.642;23.384;2024-02-23T00:46:07;22.97;;;11.70;;
6424;SDS011;12193;42.642;23.384;2024-02-23T00:48:36;23.73;;;11.53;;
6424;SDS011;12193;42.642;23.384;2024-02-23T00:51:05;18.90;;;11.20;;
6424;SDS011;12193;42.642;23.384;2024-02-23T00:53:37;20.57;;;10.90;;
6424;SDS011;12193;42.642;23.384;2024-02-23T00:56:06;21.83;;;10.80;;
6424;SDS011;12193;42.642;23.384;2024-02-23T00:58:35;18.10;;;10.67;;
6424;SDS011;12193;42.642;23.384;2024-02-23T01:01:05;19.37;;;10.83;;
6424;SDS011;12193;42.642;23.384;2024-02-23T01:03:34;20.40;;;11.03;;
6424;SDS011;12193;42.642;23.384;2024-02-23T01:06:03;18.53;;;11.37;;
6424;SDS011;12193;42.642;23.384;2024-02-23T04:08:35;15.97;;;9.53;;
6424;SDS011;12193;42.642;23.384;2024-02-23T04:11:04;16.93;;;10.00;;
6424;SDS011;12193;42.642;23.384;2024-02-23T04:13:33;14.60;;;8.67;;
6424;SDS011;12193;42.642;23.384;2024-02-23T04:16:03;14.27;;;8.83;;
6424;SDS011;12193;42.642;23.384;2024-02-23T04:18:32;16.53;;;9.40;;
6424;SDS011;12193;42.642;23.384;2024-02-23T04:21:02;14.90;;;8.90;;
6424;SDS011;12193;42.642;23.384;2024-02-23T04:23:34;14.27;;;8.97;;
6424;SDS011;12193;42.642;23.384;2024-02-23T04:26:03;13.13;;;8.13;;
6424;SDS011;12193;42.642;23.384;2024-02-23T04:28:32;17.10;;;9.03;;
6424;SDS011;12193;42.642;23.384;2024-02-23T04:31:01;19.23;;;8.50;;
6424;SDS011;12193;42.642;23.384;2024-02-23T04:33:31;15.23;;;9.10;;
6424;SDS011;12193;42.642;23.384;2024-02-23T04:36:00;17.93;;;9.23;;
6424;SDS011;12193;42.642;23.384;2024-02-23T04:38:29;15.03;;;9.03;;
6424;SDS011;12193;42.642;23.384;2024-02-23T04:41:02;17.30;;;9.10;;
6424;SDS011;12193;42.642;23.384;2024-02-23T04:43:31;15.03;;;8.40;;
6424;SDS011;12193;42.642;23.384;2024-02-23T04:46:01;13.50;;;8.43;;
6424;SDS011;12193;42.642;23.384;2024-02-23T04:48:30;16.87;;;8.97;;
6424;SDS011;12193;42.642;23.384;2024-02-23T04:50:59;16.20;;;9.23;;
6424;SDS011;12193;42.642;23.384;2024-02-23T04:53:28;16.60;;;9.47;;
6424;SDS011;12193;42.642;23.384;2024-02-23T04:55:57;17.00;;;8.53;;
6424;SDS011;12193;42.642;23.384;2024-02-23T04:58:29;12.60;;;8.40;;
6424;SDS011;12193;42.642;23.384;2024-02-23T05:00:59;16.07;;;9.37;;
6424;SDS011;12193;42.642;23.384;2024-02-23T05:03:26;18.60;;;9.37;;
6424;SDS011;12193;42.642;23.384;2024-02-23T05:05:55;17.27;;;9.00;;
6424;SDS011;12193;42.642;23.384;2024-02-23T05:08:24;21.47;;;10.33;;
6424;SDS011;12193;42.642;23.384;2024-02-23T05:10:56;16.90;;;9.20;;
6424;SDS011;12193;42.642;23.384;2024-02-23T05:13:27;16.87;;;9.50;;
6424;SDS011;12193;42.642;23.384;2024-02-23T05:15:57;15.43;;;8.83;;
6424;SDS011;12193;42.642;23.384;2024-02-23T05:18:26;16.13;;;9.17;;
6424;SDS011;12193;42.642;23.384;2024-02-23T05:20:55;19.13;;;9.30;;
6424;SDS011;12193;42.642;23.384;2024-02-23T05:23:24;18.87;;;9.20;;
6424;SDS011;12193;42.642;23.384;2024-02-23T05:25:54;17.20;;;9.37;;
6424;SDS011;12193;42.642;23.384;2024-02-23T05:28:23;18.17;;;9.47;;
6424;SDS011;12193;42.642;23.384;2024-02-23T05:30:56;18.90;;;9.40;;
6424;SDS011;12193;42.642;23.384;2024-02-23T05:33:25;17.57;;;9.33;;
6424;SDS011;12193;42.642;23.384;2024-02-23T05:35:55;15.53;;;9.07;;
6424;SDS011;12193;42.642;23.384;2024-02-23T05:38:24;16.40;;;9.83;;
6424;SDS011;12193;42.642;23.384;2024-02-23T05:40:53;16.03;;;9.30;;
6424;SDS011;12193;42.642;23.384;2024-02-23T05:43:22;17.57;;;9.67;;
6424;SDS011;12193;42.642;23.384;2024-02-23T05:45:51;19.10;;;10.33;;
6424;SDS011;12193;42.642;23.384;2024-02-23T05:48:25;16.87;;;9.87;;
6424;SDS011;12193;42.642;23.384;2024-02-23T05:50:54;18.30;;;10.07;;
6424;SDS011;12193;42.642;23.384;2024-02-23T05:53:24;19.47;;;10.30;;
6424;SDS011;12193;42.642;23.384;2024-02-23T05:55:57;19.27;;;10.13;;
6424;SDS011;12193;42.642;23.384;2024-02-23T05:58:26;18.40;;;10.47;;
6424;SDS011;12193;42.642;23.384;2024-02-23T06:00:55;16.63;;;9.80;;
6424;SDS011;12193;42.642;23.384;2024-02-23T06:03:27;17.10;;;9.77;;
6424;SDS011;12193;42.642;23.384;2024-02-23T06:05:56;17.27;;;9.67;;
6424;SDS011;12193;42.642;23.384;2024-02-23T06:08:25;17.20;;;10.50;;
6424;SDS011;12193;42.642;23.384;2024-02-23T06:10:54;18.33;;;10.40;;
6424;SDS011;12193;42.642;23.384;2024-02-23T06:13:25;26.10;;;11.27;;
6424;SDS011;12193;42.642;23.384;2024-02-23T06:15:54;21.10;;;10.37;;
6424;SDS011;12193;42.642;23.384;2024-02-23T06:18:23;19.20;;;10.73;;
6424;SDS011;12193;42.642;23.384;2024-02-23T06:20:53;20.00;;;11.90;;
6424;SDS011;12193;42.642;23.384;2024-02-23T06:23:22;25.53;;;11.20;;
6424;SDS011;12193;42.642;23.384;2024-02-23T06:25:51;25.67;;;11.50;;
6424;SDS011;12193;42.642;23.384;2024-02-23T06:28:25;19.80;;;11.33;;
6424;SDS011;12193;42.642;23.384;2024-02-23T06:30:55;22.77;;;12.23;;
6424;SDS011;12193;42.642;23.384;2024-02-23T06:33:27;23.33;;;10.97;;
6424;SDS011;12193;42.642;23.384;2024-02-23T06:35:56;19.93;;;11.23;;
6424;SDS011;12193;42.642;23.384;2024-02-23T06:38:26;30.50;;;11.40;;
6424;SDS011;12193;42.642;23.384;2024-02-23T06:40:55;21.33;;;10.90;;
6424;SDS011;12193;42.642;23.384;2024-02-23T06:43:24;17.57;;;10.13;;
6424;SDS011;12193;42.642;23.384;2024-02-23T06:45:54;21.90;;;10.20;;
6424;SDS011;12193;42.642;23.384;2024-02-23T06:48:23;17.07;;;10.40;;
6424;SDS011;12193;42.642;23.384;2024-02-23T06:50:55;18.80;;;10.43;;
6424;SDS011;12193;42.642;23.384;2024-02-23T06:53:24;18.43;;;10.67;;
6424;SDS011;12193;42.642;23.384;2024-02-23T06:55:53;19.10;;;11.07;;
6424;SDS011;12193;42.642;23.384;2024-02-23T06:58:24;21.03;;;10.10;;
6424;SDS011;12193;42.642;23.384;2024-02-23T07:00:53;14.57;;;9.50;;
6424;SDS011;12193;42.642;23.384;2024-02-23T07:03:23;17.53;;;9.97;;
6424;SDS011;12193;42.642;23.384;2024-02-23T07:05:55;15.63;;;9.20;;
6424;SDS011;12193;42.642;23.384;2024-02-23T07:08:24;16.93;;;10.03;;
6424;SDS011;12193;42.642;23.384;2024-02-23T07:10:53;17.57;;;10.37;;
6424;SDS011;12193;42.642;23.384;2024-02-23T07:13:22;19.43;;;9.87;;
6424;SDS011;12193;42.642;23.384;2024-02-23T07:15:52;17.33;;;10.00;;
6424;SDS011;12193;42.642;23.384;2024-02-23T07:18:22;17.93;;;9.97;;
6424;SDS011;12193;42.642;23.384;2024-02-23T07:20:51;26.43;;;11.97;;
6424;SDS011;12193;42.642;23.384;2024-02-23T07:23:22;22.07;;;12.43;;
6424;SDS011;12193;42.642;23.384;2024-02-23T07:25:52;21.90;;;11.97;;
6424;SDS011;12193;42.642;23.384;2024-02-23T07:28:21;20.87;;;12.20;;
6424;SDS011;12193;42.642;23.384;2024-02-23T07:30:50;19.33;;;12.47;;
6424;SDS011;12193;42.642;23.384;2024-02-23T07:33:19;23.80;;;13.10;;
6424;SDS011;12193;42.642;23.384;2024-02-23T07:35:49;24.10;;;13.27;;
6424;SDS011;12193;42.642;23.384;2024-02-23T07:38:18;23.53;;;13.13;;
6424;SDS011;12193;42.642;23.384;2024-02-23T07:40:50;26.03;;;13.40;;
6424;SDS011;12193;42.642;23.384;2024-02-23T07:43:19;21.60;;;12.33;;
6424;SDS011;12193;42.642;23.384;2024-02-23T07:45:48;20.57;;;11.17;;
6424;SDS011;12193;42.642;23.384;2024-02-23T07:48:17;20.47;;;12.53;;
6424;SDS011;12193;42.642;23.384;2024-02-23T07:50:47;20.90;;;11.67;;
6424;SDS011;12193;42.642;23.384;2024-02-23T07:53:16;20.00;;;11.57;;
6424;SDS011;12193;42.642;23.384;2024-02-23T07:55:45;20.47;;;11.33;;
6424;SDS011;12193;42.642;23.384;2024-02-23T07:58:17;20.03;;;10.90;;
6424;SDS011;12193;42.642;23.384;2024-02-23T08:00:47;28.67;;;13.17;;
6424;SDS011;12193;42.642;23.384;2024-02-23T08:03:16;19.60;;;11.33;;
6424;SDS011;12193;42.642;23.384;2024-02-23T08:05:45;17.97;;;11.43;;
6424;SDS011;12193;42.642;23.384;2024-02-23T08:08:14;17.67;;;11.00;;
6424;SDS011;12193;42.642;23.384;2024-02-23T08:10:43;19.13;;;11.13;;
6424;SDS011;12193;42.642;23.384;2024-02-23T08:13:12;17.60;;;10.10;;
6424;SDS011;12193;42.642;23.384;2024-02-23T08:15:46;20.60;;;9.70;;
6424;SDS011;12193;42.642;23.384;2024-02-23T08:18:15;14.70;;;8.30;;
6424;SDS011;12193;42.642;23.384;2024-02-23T08:20:44;17.80;;;8.57;;
6424;SDS011;12193;42.642;23.384;2024-02-23T08:23:13;14.10;;;8.03;;
6424;SDS011;12193;42.642;23.384;2024-02-23T08:25:45;16.13;;;8.47;;
6424;SDS011;12193;42.642;23.384;2024-02-23T08:28:16;10.03;;;7.20;;
6424;SDS011;12193;42.642;23.384;2024-02-23T08:30:48;15.20;;;8.10;;
6424;SDS011;12193;42.642;23.384;2024-02-23T08:33:18;19.57;;;8.00;;
6424;SDS011;12193;42.642;23.384;2024-02-23T08:35:47;12.27;;;8.03;;
6424;SDS011;12193;42.642;23.384;2024-02-23T08:38:16;12.03;;;7.43;;
6424;SDS011;12193;42.642;23.384;2024-02-23T08:40:46;14.80;;;7.30;;
6424;SDS011;12193;42.642;23.384;2024-02-23T08:43:16;13.83;;;7.57;;
6424;SDS011;12193;42.642;23.384;2024-02-23T08:45:48;17.80;;;7.93;;
6424;SDS011;12193;42.642;23.384;2024-02-23T08:48:17;11.10;;;7.30;;
6424;SDS011;12193;42.642;23.384;2024-02-23T08:50:46;12.80;;;7.53;;
6424;SDS011;12193;42.642;23.384;2024-02-23T08:53:15;20.77;;;8.87;;
6424;SDS011;12193;42.642;23.384;2024-02-23T08:55:44;14.47;;;9.13;;
6424;SDS011;12193;42.642;23.384;2024-02-23T08:58:14;17.60;;;8.10;;
6424;SDS011;12193;42.642;23.384;2024-02-23T09:00:43;12.87;;;8.17;;
6424;SDS011;12193;42.642;23.384;2024-02-23T09:03:15;16.70;;;8.73;;
6424;SDS011;12193;42.642;23.384;2024-02-23T09:05:44;21.13;;;8.17;;
6424;SDS011;12193;42.642;23.384;2024-02-23T09:08:14;12.17;;;7.53;;
6424;SDS011;12193;42.642;23.384;2024-02-23T09:10:43;23.30;;;8.60;;
6424;SDS011;12193;42.642;23.384;2024-02-23T09:13:12;20.67;;;8.17;;
6424;SDS011;12193;42.642;23.384;2024-02-23T09:15:41;15.00;;;7.10;;
6424;SDS011;12193;42.642;23.384;2024-02-23T09:18:11;13.43;;;7.23;;
6424;SDS011;12193;42.642;23.384;2024-02-23T09:20:42;10.90;;;6.40;;
6424;SDS011;12193;42.642;23.384;2024-02-23T09:23:12;10.90;;;6.20;;
6424;SDS011;12193;42.642;23.384;2024-02-23T09:25:41;9.60;;;5.67;;
6424;SDS011;12193;42.642;23.384;2024-02-23T09:28:10;11.23;;;5.97;;
6424;SDS011;12193;42.642;23.384;2024-02-23T09:30:40;12.43;;;6.83;;
6424;SDS011;12193;42.642;23.384;2024-02-23T09:33:09;8.30;;;5.80;;
6424;SDS011;12193;42.642;23.384;2024-02-23T09:35:38;8.87;;;6.17;;
6424;SDS011;12193;42.642;23.384;2024-02-23T09:38:07;10.63;;;6.07;;
6424;SDS011;12193;42.642;23.384;2024-02-23T09:40:37;9.33;;;5.50;;
6424;SDS011;12193;42.642;23.384;2024-02-23T09:43:07;8.40;;;6.20;;
6424;SDS011;12193;42.642;23.384;2024-02-23T09:45:38;10.13;;;6.10;;
6424;SDS011;12193;42.642;23.384;2024-02-23T09:48:07;11.30;;;5.40;;
6424;SDS011;12193;42.642;23.384;2024-02-23T09:50:39;6.33;;;4.60;;
6424;SDS011;12193;42.642;23.384;2024-02-23T09:53:13;7.80;;;5.30;;
6424;SDS011;12193;42.642;23.384;2024-02-23T09:55:43;13.87;;;5.60;;
6424;SDS011;12193;42.642;23.384;2024-02-23T09:58:13;9.87;;;5.53;;
6424;SDS011;12193;42.642;23.384;2024-02-23T10:00:43;11.03;;;5.03;;
6424;SDS011;12193;42.642;23.384;2024-02-23T10:03:13;10.40;;;4.77;;
6424;SDS011;12193;42.642;23.384;2024-02-23T10:05:42;9.83;;;5.17;;
6424;SDS011;12193;42.642;23.384;2024-02-23T10:08:14;9.07;;;5.10;;
6424;SDS011;12193;42.642;23.384;2024-02-23T10:10:45;8.93;;;4.70;;
6424;SDS011;12193;42.642;23.384;2024-02-23T10:13:17;9.20;;;4.23;;
6424;SDS011;12193;42.642;23.384;2024-02-23T10:15:44;6.93;;;4.50;;
6424;SDS011;12193;42.642;23.384;2024-02-23T10:18:13;6.80;;;4.20;;
6424;SDS011;12193;42.642;23.384;2024-02-23T10:20:43;5.33;;;3.90;;
6424;SDS011;12193;42.642;23.384;2024-02-23T10:23:15;5.67;;;3.90;;
6424;SDS011;12193;42.642;23.384;2024-02-23T10:25:46;9.80;;;3.40;;
6424;SDS011;12193;42.642;23.384;2024-02-23T10:28:15;6.63;;;3.30;;
6424;SDS011;12193;42.642;23.384;2024-02-23T10:30:48;5.57;;;3.20;;
6424;SDS011;12193;42.642;23.384;2024-02-23T10:33:18;6.00;;;4.13;;
6424;SDS011;12193;42.642;23.384;2024-02-23T10:35:51;5.40;;;3.27;;
6424;SDS011;12193;42.642;23.384;2024-02-23T10:38:27;5.17;;;3.10;;
6424;SDS011;12193;42.642;23.384;2024-02-23T10:40:59;4.37;;;2.97;;
6424;SDS011;12193;42.642;23.384;2024-02-23T10:43:36;3.90;;;3.00;;
6424;SDS011;12193;42.642;23.384;2024-02-23T10:46:10;4.63;;;3.27;;
6424;SDS011;12193;42.642;23.384;2024-02-23T10:48:40;4.90;;;3.30;;
6424;SDS011;12193;42.642;23.384;2024-02-23T10:51:10;5.63;;;3.10;;
6424;SDS011;12193;42.642;23.384;2024-02-23T10:53:44;5.17;;;2.90;;
6424;SDS011;12193;42.642;23.384;2024-02-23T10:56:15;4.70;;;2.80;;
6424;SDS011;12193;42.642;23.384;2024-02-23T10:58:44;3.83;;;2.93;;
6424;SDS011;12193;42.642;23.384;2024-02-23T11:01:14;4.50;;;3.20;;
6424;SDS011;12193;42.642;23.384;2024-02-23T11:03:44;7.53;;;3.50;;
6424;SDS011;12193;42.642;23.384;2024-02-23T11:06:16;3.00;;;2.60;;
6424;SDS011;12193;42.642;23.384;2024-02-23T11:08:49;6.30;;;2.97;;
6424;SDS011;12193;42.642;23.384;2024-02-23T11:11:19;4.80;;;2.93;;
6424;SDS011;12193;42.642;23.384;2024-02-23T11:13:48;4.77;;;2.80;;
6424;SDS011;12193;42.642;23.384;2024-02-23T11:16:24;4.30;;;2.43;;
6424;SDS011;12193;42.642;23.384;2024-02-23T11:19:01;4.03;;;2.80;;
6424;SDS011;12193;42.642;23.384;2024-02-23T11:21:34;5.47;;;3.17;;
6424;SDS011;12193;42.642;23.384;2024-02-23T11:24:07;6.67;;;3.33;;
6424;SDS011;12193;42.642;23.384;2024-02-23T11:26:36;4.67;;;2.70;;
6424;SDS011;12193;42.642;23.384;2024-02-23T11:29:11;3.37;;;2.57;;
6424;SDS011;12193;42.642;23.384;2024-02-23T11:31:44;3.97;;;2.97;;
6424;SDS011;12193;42.642;23.384;2024-02-23T11:34:15;4.67;;;2.87;;
6424;SDS011;12193;42.642;23.384;2024-02-23T11:36:51;10.47;;;3.17;;
6424;SDS011;12193;42.642;23.384;2024-02-23T11:39:25;4.43;;;2.63;;
6424;SDS011;12193;42.642;23.384;2024-02-23T11:41:55;4.80;;;3.20;;
6424;SDS011;12193;42.642;23.384;2024-02-23T11:44:26;6.97;;;3.40;;
6424;SDS011;12193;42.642;23.384;2024-02-23T11:46:55;3.10;;;2.50;;
6424;SDS011;12193;42.642;23.384;2024-02-23T11:49:27;5.73;;;2.90;;
6424;SDS011;12193;42.642;23.384;2024-02-23T11:51:57;5.23;;;2.80;;
6424;SDS011;12193;42.642;23.384;2024-02-23T11:54:29;3.93;;;2.50;;
6424;SDS011;12193;42.642;23.384;2024-02-23T11:56:59;4.80;;;2.90;;
6424;SDS011;12193;42.642;23.384;2024-02-23T11:59:28;2.77;;;2.07;;
6424;SDS011;12193;42.642;23.384;2024-02-23T12:01:58;2.47;;;2.27;;
6424;SDS011;12193;42.642;23.384;2024-02-23T12:04:27;2.80;;;2.30;;
6424;SDS011;12193;42.642;23.384;2024-02-23T12:06:57;3.00;;;2.43;;
6424;SDS011;12193;42.642;23.384;2024-02-23T12:09:28;3.03;;;2.60;;
6424;SDS011;12193;42.642;23.384;2024-02-23T12:11:58;3.60;;;2.10;;
6424;SDS011;12193;42.642;23.384;2024-02-23T12:14:27;2.90;;;2.50;;
6424;SDS011;12193;42.642;23.384;2024-02-23T12:16:57;3.17;;;2.07;;
6424;SDS011;12193;42.642;23.384;2024-02-23T12:19:26;3.40;;;2.50;;
6424;SDS011;12193;42.642;23.384;2024-02-23T12:21:59;4.20;;;2.13;;
6424;SDS011;12193;42.642;23.384;2024-02-23T12:24:31;3.33;;;2.67;;
6424;SDS011;12193;42.642;23.384;2024-02-23T12:27:01;2.53;;;2.13;;
6424;SDS011;12193;42.642;23.384;2024-02-23T12:29:30;3.03;;;2.40;;
6424;SDS011;12193;42.642;23.384;2024-02-23T12:32:03;2.93;;;2.30;;
6424;SDS011;12193;42.642;23.384;2024-02-23T12:34:33;2.73;;;2.37;;
6424;SDS011;12193;42.642;23.384;2024-02-23T12:37:03;2.10;;;1.90;;
6424;SDS011;12193;42.642;23.384;2024-02-23T12:39:36;2.30;;;2.07;;
6424;SDS011;12193;42.642;23.384;2024-02-23T12:42:06;2.80;;;2.20;;
6424;SDS011;12193;42.642;23.384;2024-02-23T12:44:35;2.47;;;2.27;;
6424;SDS011;12193;42.642;23.384;2024-02-23T12:47:04;2.77;;;2.17;;
6424;SDS011;12193;42.642;23.384;2024-02-23T12:49:33;2.33;;;2.10;;
6424;SDS011;12193;42.642;23.384;2024-02-23T12:52:03;3.20;;;2.30;;
6424;SDS011;12193;42.642;23.384;2024-02-23T12:54:33;2.80;;;2.13;;
6424;SDS011;12193;42.642;23.384;2024-02-23T12:57:05;2.73;;;2.27;;
6424;SDS011;12193;42.642;23.384;2024-02-23T12:59:35;3.17;;;2.40;;
6424;SDS011;12193;42.642;23.384;2024-02-23T13:02:04;2.50;;;2.00;;
6424;SDS011;12193;42.642;23.384;2024-02-23T13:04:36;2.53;;;2.03;;
6424;SDS011;12193;42.642;23.384;2024-02-23T13:07:06;2.77;;;2.10;;
6424;SDS011;12193;42.642;23.384;2024-02-23T13:09:35;3.37;;;2.40;;
6424;SDS011;12193;42.642;23.384;2024-02-23T13:12:07;6.20;;;2.33;;
6424;SDS011;12193;42.642;23.384;2024-02-23T13:14:36;4.03;;;2.60;;
6424;SDS011;12193;42.642;23.384;2024-02-23T13:17:05;3.40;;;2.63;;
6424;SDS011;12193;42.642;23.384;2024-02-23T13:19:34;5.67;;;2.97;;
6424;SDS011;12193;42.642;23.384;2024-02-23T13:22:04;4.60;;;2.83;;
6424;SDS011;12193;42.642;23.384;2024-02-23T13:24:33;5.77;;;3.00;;
6424;SDS011;12193;42.642;23.384;2024-02-23T13:27:02;4.13;;;2.50;;
6424;SDS011;12193;42.642;23.384;2024-02-23T13:29:34;4.10;;;2.80;;
6424;SDS011;12193;42.642;23.384;2024-02-23T13:32:04;4.73;;;3.00;;
6424;SDS011;12193;42.642;23.384;2024-02-23T13:34:34;5.07;;;2.70;;
6424;SDS011;12193;42.642;23.384;2024-02-23T13:37:03;4.17;;;2.67;;
6424;SDS011;12193;42.642;23.384;2024-02-23T13:39:33;3.63;;;2.50;;
6424;SDS011;12193;42.642;23.384;2024-02-23T13:42:02;5.10;;;2.80;;
6424;SDS011;12193;42.642;23.384;2024-02-23T13:44:36;5.57;;;2.80;;
6424;SDS011;12193;42.642;23.384;2024-02-23T13:47:06;3.43;;;2.67;;
6424;SDS011;12193;42.642;23.384;2024-02-23T13:49:35;7.80;;;2.53;;
6424;SDS011;12193;42.642;23.384;2024-02-23T13:52:04;5.33;;;2.80;;
6424;SDS011;12193;42.642;23.384;2024-02-23T13:54:34;5.93;;;2.50;;
6424;SDS011;12193;42.642;23.384;2024-02-23T13:57:03;5.43;;;2.90;;
6424;SDS011;12193;42.642;23.384;2024-02-23T13:59:33;2.93;;;2.33;;
6424;SDS011;12193;42.642;23.384;2024-02-23T14:02:05;5.27;;;2.70;;
6424;SDS011;12193;42.642;23.384;2024-02-23T14:04:34;4.40;;;2.30;;
6424;SDS011;12193;42.642;23.384;2024-02-23T14:07:04;2.37;;;2.07;;
6424;SDS011;12193;42.642;23.384;2024-02-23T14:09:33;4.30;;;2.37;;
6424;SDS011;12193;42.642;23.384;2024-02-23T14:12:03;2.67;;;2.10;;
6424;SDS011;12193;42.642;23.384;2024-02-23T14:14:32;3.57;;;2.40;;
6424;SDS011;12193;42.642;23.384;2024-02-23T14:17:02;4.23;;;2.63;;
6424;SDS011;12193;42.642;23.384;2024-02-23T14:19:34;4.57;;;2.43;;
6424;SDS011;12193;42.642;23.384;2024-02-23T14:22:03;7.20;;;2.50;;
6424;SDS011;12193;42.642;23.384;2024-02-23T14:24:32;3.67;;;2.67;;
6424;SDS011;12193;42.642;23.384;2024-02-23T14:27:02;2.80;;;2.20;;
6424;SDS011;12193;42.642;23.384;2024-02-23T14:29:31;3.60;;;2.90;;
6424;SDS011;12193;42.642;23.384;2024-02-23T14:32:00;5.00;;;2.90;;
6424;SDS011;12193;42.642;23.384;2024-02-23T14:34:33;5.43;;;2.60;;
6424;SDS011;12193;42.642;23.384;2024-02-23T14:37:02;3.23;;;2.40;;
6424;SDS011;12193;42.642;23.384;2024-02-23T14:39:32;2.90;;;2.30;;
6424;SDS011;12193;42.642;23.384;2024-02-23T14:42:01;3.73;;;2.33;;
6424;SDS011;12193;42.642;23.384;2024-02-23T14:44:31;3.30;;;2.40;;
6424;SDS011;12193;42.642;23.384;2024-02-23T14:47:00;3.93;;;2.30;;
6424;SDS011;12193;42.642;23.384;2024-02-23T14:49:33;4.73;;;2.43;;
6424;SDS011;12193;42.642;23.384;2024-02-23T14:52:03;2.67;;;2.23;;
6424;SDS011;12193;42.642;23.384;2024-02-23T14:54:32;5.83;;;2.80;;
6424;SDS011;12193;42.642;23.384;2024-02-23T14:57:02;3.70;;;3.00;;
6424;SDS011;12193;42.642;23.384;2024-02-23T14:59:33;3.70;;;2.57;;
6424;SDS011;12193;42.642;23.384;2024-02-23T15:02:10;3.63;;;2.60;;
6424;SDS011;12193;42.642;23.384;2024-02-23T15:04:49;6.83;;;2.97;;
6424;SDS011;12193;42.642;23.384;2024-02-23T15:07:19;4.80;;;2.70;;
6424;SDS011;12193;42.642;23.384;2024-02-23T15:09:48;4.33;;;2.60;;
6424;SDS011;12193;42.642;23.384;2024-02-23T15:12:17;5.40;;;2.70;;
6424;SDS011;12193;42.642;23.384;2024-02-23T15:14:47;4.57;;;2.60;;
6424;SDS011;12193;42.642;23.384;2024-02-23T15:17:16;7.97;;;2.80;;
6424;SDS011;12193;42.642;23.384;2024-02-23T15:19:46;3.93;;;2.80;;
6424;SDS011;12193;42.642;23.384;2024-02-23T15:22:17;3.57;;;2.57;;
6424;SDS011;12193;42.642;23.384;2024-02-23T15:24:47;2.73;;;2.47;;
6424;SDS011;12193;42.642;23.384;2024-02-23T15:27:16;4.30;;;2.57;;
6424;SDS011;12193;42.642;23.384;2024-02-23T15:29:45;5.30;;;3.00;;
6424;SDS011;12193;42.642;23.384;2024-02-23T15:32:14;6.40;;;2.40;;
6424;SDS011;12193;42.642;23.384;2024-02-23T15:34:43;3.50;;;2.80;;
6424;SDS011;12193;42.642;23.384;2024-02-23T15:37:15;4.30;;;2.87;;
6424;SDS011;12193;42.642;23.384;2024-02-23T15:39:44;4.13;;;2.73;;
6424;SDS011;12193;42.642;23.384;2024-02-23T15:42:14;4.00;;;2.40;;
6424;SDS011;12193;42.642;23.384;2024-02-23T15:44:46;3.67;;;2.60;;
6424;SDS011;12193;42.642;23.384;2024-02-23T15:47:15;3.97;;;3.00;;
6424;SDS011;12193;42.642;23.384;2024-02-23T15:49:44;4.93;;;2.57;;
6424;SDS011;12193;42.642;23.384;2024-02-23T15:52:16;3.13;;;2.47;;
6424;SDS011;12193;42.642;23.384;2024-02-23T15:54:45;3.33;;;2.70;;
6424;SDS011;12193;42.642;23.384;2024-02-23T15:57:14;4.63;;;2.63;;
6424;SDS011;12193;42.642;23.384;2024-02-23T15:59:43;4.40;;;2.90;;
6424;SDS011;12193;42.642;23.384;2024-02-23T16:02:12;4.90;;;2.70;;
6424;SDS011;12193;42.642;23.384;2024-02-23T16:04:42;3.90;;;2.93;;
6424;SDS011;12193;42.642;23.384;2024-02-23T16:07:11;4.27;;;3.20;;
6424;SDS011;12193;42.642;23.384;2024-02-23T16:09:43;4.97;;;3.20;;
6424;SDS011;12193;42.642;23.384;2024-02-23T16:12:12;3.97;;;2.97;;
6424;SDS011;12193;42.642;23.384;2024-02-23T16:14:42;4.33;;;3.40;;
6424;SDS011;12193;42.642;23.384;2024-02-23T16:17:11;3.97;;;3.20;;
6424;SDS011;12193;42.642;23.384;2024-02-23T16:19:40;5.43;;;3.70;;
6424;SDS011;12193;42.642;23.384;2024-02-23T16:22:10;5.10;;;3.33;;
6424;SDS011;12193;42.642;23.384;2024-02-23T16:24:39;5.70;;;3.80;;
6424;SDS011;12193;42.642;23.384;2024-02-23T16:27:11;4.97;;;3.33;;
6424;SDS011;12193;42.642;23.384;2024-02-23T16:29:40;4.53;;;3.27;;
6424;SDS011;12193;42.642;23.384;2024-02-23T16:32:09;5.63;;;3.20;;
6424;SDS011;12193;42.642;23.384;2024-02-23T16:34:39;4.33;;;3.37;;
6424;SDS011;12193;42.642;23.384;2024-02-23T16:37:08;6.77;;;3.87;;
6424;SDS011;12193;42.642;23.384;2024-02-23T16:39:37;6.50;;;3.80;;
6424;SDS011;12193;42.642;23.384;2024-02-23T16:42:06;5.40;;;4.00;;
6424;SDS011;12193;42.642;23.384;2024-02-23T16:44:38;4.33;;;3.50;;
6424;SDS011;12193;42.642;23.384;2024-02-23T16:47:07;7.30;;;3.43;;
6424;SDS011;12193;42.642;23.384;2024-02-23T16:49:36;5.30;;;3.40;;
6424;SDS011;12193;42.642;23.384;2024-02-23T16:52:06;5.77;;;3.90;;
6424;SDS011;12193;42.642;23.384;2024-02-23T16:54:35;4.67;;;3.73;;
6424;SDS011;12193;42.642;23.384;2024-02-23T16:57:06;5.73;;;3.53;;
6424;SDS011;12193;42.642;23.384;2024-02-23T16:59:38;6.83;;;3.80;;
6424;SDS011;12193;42.642;23.384;2024-02-23T17:02:07;7.13;;;4.13;;
6424;SDS011;12193;42.642;23.384;2024-02-23T17:04:37;5.70;;;3.63;;
6424;SDS011;12193;42.642;23.384;2024-02-23T17:07:06;4.23;;;3.43;;
6424;SDS011;12193;42.642;23.384;2024-02-23T17:09:35;5.50;;;4.00;;
6424;SDS011;12193;42.642;23.384;2024-02-23T17:12:04;4.47;;;3.60;;
6424;SDS011;12193;42.642;23.384;2024-02-23T17:14:34;6.77;;;4.23;;
6424;SDS011;12193;42.642;23.384;2024-02-23T17:17:05;7.13;;;4.07;;
6424;SDS011;12193;42.642;23.384;2024-02-23T17:19:34;5.23;;;4.00;;
6424;SDS011;12193;42.642;23.384;2024-02-23T17:22:05;5.27;;;3.73;;
6424;SDS011;12193;42.642;23.384;2024-02-23T17:24:34;7.20;;;4.37;;
6424;SDS011;12193;42.642;23.384;2024-02-23T17:27:03;4.73;;;3.83;;
6424;SDS011;12193;42.642;23.384;2024-02-23T17:29:33;6.07;;;4.03;;
6424;SDS011;12193;42.642;23.384;2024-02-23T17:32:05;5.03;;;3.60;;
6424;SDS011;12193;42.642;23.384;2024-02-23T17:34:35;6.00;;;4.43;;
6424;SDS011;12193;42.642;23.384;2024-02-23T17:37:04;7.37;;;3.93;;
6424;SDS011;12193;42.642;23.384;2024-02-23T17:39:35;6.73;;;3.80;;
6424;SDS011;12193;42.642;23.384;2024-02-23T17:42:05;9.10;;;4.13;;
6424;SDS011;12193;42.642;23.384;2024-02-23T17:44:34;6.17;;;3.80;;
6424;SDS011;12193;42.642;23.384;2024-02-23T17:47:06;5.50;;;4.23;;
6424;SDS011;12193;42.642;23.384;2024-02-23T17:49:35;5.10;;;3.87;;
6424;SDS011;12193;42.642;23.384;2024-02-23T17:52:05;5.27;;;3.73;;
6424;SDS011;12193;42.642;23.384;2024-02-23T17:54:34;5.63;;;4.03;;